createdAt,value
2017-12-30T00:33:05.154Z,6.18
2017-12-30T00:35:32.663Z,5.12
2017-12-30T00:38:00.176Z,4.00
2017-12-30T00:40:33.057Z,2.40
2017-12-30T02:26:25.271Z,5.35
2017-12-30T02:28:52.734Z,7.80
2017-12-30T02:31:20.376Z,4.90
2017-12-30T06:25:01.938Z,7.30
2017-12-30T06:27:29.878Z,5.80
2017-12-30T06:29:57.580Z,7.30
2017-12-30T06:32:25.883Z,7.93
2017-12-30T06:34:55.388Z,6.47
2017-12-30T06:37:23.145Z,4.30
2017-12-30T06:39:54.977Z,16.17
2017-12-30T06:42:22.825Z,9.20
2017-12-30T06:44:57.547Z,10.05
2017-12-30T06:47:25.269Z,5.68
2017-12-30T06:49:53.214Z,10.65
2017-12-30T06:52:20.845Z,6.93
2017-12-30T06:54:48.551Z,12.18
2017-12-30T06:57:16.083Z,11.95
2017-12-30T06:59:43.613Z,9.52
2017-12-30T07:02:11.198Z,21.75
2017-12-30T07:04:41.876Z,7.97
2017-12-30T07:07:10.634Z,7.18
2017-12-30T07:09:40.149Z,8.57
2017-12-30T07:12:08.628Z,10.07
2017-12-30T07:14:36.160Z,12.68
2017-12-30T07:17:03.678Z,9.57
2017-12-30T07:19:32.027Z,10.57
2017-12-30T07:21:59.523Z,11.57
2017-12-30T07:24:27.689Z,6.30
2017-12-30T07:26:55.186Z,10.02
2017-12-30T07:29:22.644Z,10.25
2017-12-30T07:31:50.126Z,6.05
2017-12-30T07:34:17.625Z,6.87
2017-12-30T07:36:45.526Z,6.15
2017-12-30T07:39:13.021Z,8.27
2017-12-30T07:41:41.131Z,6.62
2017-12-30T07:44:09.331Z,7.03
2017-12-30T07:46:36.971Z,7.55
2017-12-30T07:49:10.182Z,11.90
2017-12-30T07:51:37.710Z,10.90
2017-12-30T07:54:05.989Z,5.97
2017-12-30T07:56:33.463Z,5.72
2017-12-30T07:59:01.104Z,10.88
2017-12-30T08:01:30.179Z,9.50
2017-12-30T08:03:58.941Z,11.20
2017-12-30T08:06:28.555Z,8.32
2017-12-30T08:09:05.314Z,7.50
2017-12-30T08:11:32.911Z,8.20
2017-12-30T08:14:03.098Z,13.45
2017-12-30T08:16:32.029Z,14.40
2017-12-30T08:19:02.919Z,20.75
2017-12-30T08:21:30.458Z,15.45
2017-12-30T08:23:58.024Z,14.35
2017-12-30T08:26:25.633Z,13.18
2017-12-30T08:28:53.152Z,16.65
2017-12-30T08:31:21.300Z,7.12
2017-12-30T08:33:48.869Z,6.30
2017-12-30T08:36:16.426Z,5.35
2017-12-30T08:38:44.680Z,4.40
2017-12-30T08:41:12.238Z,2.30
2017-12-30T08:43:40.629Z,4.10
2017-12-30T08:46:11.136Z,5.57
2017-12-30T08:48:39.448Z,5.15
2017-12-30T08:51:07.114Z,3.85
2017-12-30T08:53:35.170Z,5.28
2017-12-30T08:56:02.701Z,4.53
2017-12-30T08:58:30.244Z,2.95
2017-12-30T09:00:57.709Z,4.32
2017-12-30T09:03:25.180Z,3.08
2017-12-30T09:05:52.832Z,6.25
2017-12-30T09:08:20.343Z,6.75
2017-12-30T09:10:47.909Z,8.05
2017-12-30T09:13:19.009Z,8.00
2017-12-30T09:15:47.388Z,5.68
2017-12-30T09:18:15.133Z,4.65
2017-12-30T09:20:42.588Z,4.50
2017-12-30T09:23:13.730Z,3.80
2017-12-30T09:25:41.248Z,5.15
2017-12-30T09:28:10.343Z,4.95
2017-12-30T09:30:38.212Z,9.00
2017-12-30T09:33:05.940Z,8.27
2017-12-30T09:35:33.511Z,9.73
2017-12-30T09:38:01.050Z,8.07
2017-12-30T09:40:28.604Z,5.18
2017-12-30T09:42:56.111Z,7.47
2017-12-30T09:45:23.683Z,3.78
2017-12-30T09:47:52.200Z,5.28
2017-12-30T09:50:20.323Z,5.35
2017-12-30T09:52:48.118Z,5.97
2017-12-30T09:55:16.360Z,4.20
2017-12-30T09:57:43.914Z,5.30
2017-12-30T10:00:11.551Z,5.87
2017-12-30T10:02:39.772Z,4.40
2017-12-30T10:05:07.354Z,3.85
2017-12-30T10:07:34.947Z,5.28
2017-12-30T10:10:02.609Z,3.85
2017-12-30T10:12:30.136Z,8.50
2017-12-30T10:14:57.651Z,3.35
2017-12-30T10:17:25.154Z,5.35
2017-12-30T10:19:52.716Z,3.12
2017-12-30T10:22:20.233Z,3.28
2017-12-30T10:24:49.084Z,2.30
2017-12-30T10:27:19.037Z,2.00
2017-12-30T10:29:46.791Z,1.40
2017-12-30T10:32:14.300Z,2.08
2017-12-30T10:34:41.842Z,1.33
2017-12-30T10:37:10.185Z,1.40
2017-12-30T10:39:37.700Z,1.77
2017-12-30T10:42:05.279Z,1.42
2017-12-30T10:44:32.864Z,1.70
2017-12-30T10:47:00.417Z,1.60
2017-12-30T10:49:27.950Z,1.98
2017-12-30T10:51:56.242Z,1.60
2017-12-30T10:54:23.758Z,1.10
2017-12-30T10:56:51.319Z,1.35
2017-12-30T10:59:18.852Z,1.42
2017-12-30T11:01:46.389Z,1.20
2017-12-30T11:04:13.907Z,1.55
2017-12-30T11:06:41.516Z,3.08
2017-12-30T11:09:09.955Z,2.75
2017-12-30T11:11:37.501Z,4.80
2017-12-30T11:14:05.045Z,3.25
2017-12-30T11:16:32.551Z,2.47
2017-12-30T11:19:00.088Z,2.40
2017-12-30T11:21:27.654Z,1.52
2017-12-30T11:23:55.214Z,3.15
2017-12-30T11:26:23.571Z,2.33
2017-12-30T11:28:51.110Z,2.53
2017-12-30T11:31:18.634Z,1.77
2017-12-30T11:33:46.165Z,1.40
2017-12-30T11:36:13.703Z,1.75
2017-12-30T11:38:41.718Z,1.70
2017-12-30T11:41:10.095Z,1.70
2017-12-30T11:43:37.658Z,1.40
2017-12-30T11:46:05.136Z,1.73
2017-12-30T11:48:32.659Z,1.70
2017-12-30T11:51:00.151Z,1.55
2017-12-30T11:53:27.748Z,2.00
2017-12-30T11:55:55.240Z,2.00
2017-12-30T11:58:22.784Z,3.67
2017-12-30T12:00:50.281Z,2.33
2017-12-30T12:03:17.767Z,2.53
2017-12-30T12:05:45.263Z,1.98
2017-12-30T12:08:12.843Z,2.15
2017-12-30T12:10:40.922Z,1.50
2017-12-30T12:13:08.795Z,2.53
2017-12-30T12:15:36.691Z,1.85
2017-12-30T12:18:04.187Z,1.73
2017-12-30T12:20:31.712Z,1.35
2017-12-30T12:22:59.258Z,3.08
2017-12-30T12:25:27.214Z,1.53
2017-12-30T12:27:54.716Z,1.13
2017-12-30T12:30:22.292Z,1.25
2017-12-30T12:32:49.775Z,2.35
2017-12-30T12:35:17.290Z,1.30
2017-12-30T12:37:44.766Z,2.60
2017-12-30T12:40:12.275Z,1.92
2017-12-30T12:42:40.360Z,1.87
2017-12-30T12:45:07.934Z,1.98
2017-12-30T12:47:35.600Z,1.20
2017-12-30T12:50:03.183Z,1.60
2017-12-30T12:52:30.852Z,1.47
2017-12-30T12:54:58.384Z,2.17
2017-12-30T12:57:25.923Z,1.90
2017-12-30T12:59:53.516Z,1.40
2017-12-30T13:02:20.984Z,1.50
2017-12-30T13:04:48.605Z,2.53
2017-12-30T13:07:16.114Z,2.30
2017-12-30T13:09:43.574Z,1.87
2017-12-30T13:12:11.852Z,1.37
2017-12-30T13:14:40.259Z,1.50
2017-12-30T13:17:07.777Z,2.30
2017-12-30T13:19:35.301Z,2.10
2017-12-30T13:22:02.784Z,3.23
2017-12-30T13:24:30.285Z,2.17
2017-12-30T13:26:57.769Z,2.50
2017-12-30T13:29:25.335Z,2.57
2017-12-30T13:31:52.967Z,2.00
2017-12-30T13:34:20.470Z,2.20
2017-12-30T13:36:48.000Z,5.20
2017-12-30T13:39:15.503Z,2.70
2017-12-30T13:41:43.662Z,3.58
2017-12-30T13:44:11.974Z,5.10
2017-12-30T13:46:39.785Z,3.07
2017-12-30T13:49:07.291Z,2.07
2017-12-30T13:51:34.770Z,3.53
2017-12-30T13:54:02.502Z,3.00
2017-12-30T13:56:31.076Z,2.90
2017-12-30T13:58:58.739Z,3.37
2017-12-30T14:01:26.865Z,3.83
2017-12-30T14:03:54.404Z,3.57
2017-12-30T14:06:21.932Z,3.03
2017-12-30T14:08:49.522Z,4.60
2017-12-30T14:11:17.022Z,3.33
2017-12-30T14:13:44.716Z,4.47
2017-12-30T14:16:12.216Z,5.80
2017-12-30T14:18:40.320Z,4.33
2017-12-30T14:21:07.848Z,6.00
2017-12-30T14:23:35.363Z,4.87
2017-12-30T14:26:02.841Z,4.97
2017-12-30T14:28:30.345Z,5.30
2017-12-30T14:30:58.323Z,6.20
2017-12-30T14:33:25.860Z,6.33
2017-12-30T14:35:53.410Z,4.73
2017-12-30T14:38:21.886Z,3.10
2017-12-30T14:40:49.419Z,6.83
2017-12-30T14:43:17.058Z,1.60
2017-12-30T14:45:44.582Z,3.67
2017-12-30T14:48:12.496Z,1.60
2017-12-30T14:50:40.972Z,1.30
2017-12-30T14:53:08.536Z,2.60
2017-12-30T14:55:36.104Z,5.23
2017-12-30T14:58:03.668Z,2.57
2017-12-30T15:00:31.307Z,4.10
2017-12-30T15:03:00.175Z,1.20
2017-12-30T15:05:27.743Z,5.70
2017-12-30T15:07:55.413Z,3.40
2017-12-30T15:10:24.178Z,1.80
2017-12-30T15:13:00.912Z,1.60
2017-12-30T15:15:29.141Z,1.50
2017-12-30T15:17:56.684Z,1.47
2017-12-30T15:20:24.322Z,3.10
2017-12-30T15:22:52.071Z,3.17
2017-12-30T15:25:19.595Z,3.40
2017-12-30T15:27:47.925Z,5.63
2017-12-30T15:30:15.789Z,3.70
2017-12-30T15:32:54.441Z,3.43
2017-12-30T15:35:22.303Z,3.17
2017-12-30T15:37:54.492Z,4.33
2017-12-30T15:40:23.915Z,3.23
2017-12-30T15:42:51.985Z,3.37
2017-12-30T15:45:19.686Z,4.23
2017-12-30T15:47:47.403Z,6.50
2017-12-30T15:50:15.077Z,4.20
2017-12-30T15:52:43.352Z,2.80
2017-12-30T15:55:11.527Z,5.07
2017-12-30T15:57:39.290Z,3.70
2017-12-30T16:00:07.648Z,3.00
2017-12-30T16:02:35.329Z,4.93
2017-12-30T16:05:03.709Z,5.70
2017-12-30T16:07:31.298Z,3.70
2017-12-30T16:09:59.054Z,4.20
2017-12-30T16:12:26.793Z,2.60
2017-12-30T16:14:54.571Z,4.07
2017-12-30T16:17:23.846Z,5.93
2017-12-30T16:19:52.496Z,4.20
2017-12-30T16:22:20.720Z,2.10
2017-12-30T16:24:48.357Z,1.77
2017-12-30T16:27:15.913Z,2.30
2017-12-30T16:29:43.532Z,1.63
2017-12-30T16:32:17.232Z,2.10
2017-12-30T16:34:49.481Z,2.20
2017-12-30T16:37:17.130Z,2.00
2017-12-30T16:39:44.885Z,6.77
2017-12-30T16:42:13.238Z,2.50
2017-12-30T16:44:41.893Z,1.80
2017-12-30T16:47:09.395Z,1.77
2017-12-30T16:49:37.022Z,1.13
2017-12-30T16:52:05.884Z,3.73
2017-12-30T16:54:33.437Z,1.83
2017-12-30T16:57:01.001Z,2.07
2017-12-30T16:59:28.707Z,3.17
2017-12-30T17:01:56.477Z,3.43
2017-12-30T17:04:24.257Z,5.43
2017-12-30T17:06:52.908Z,6.50
2017-12-30T17:09:20.715Z,9.60
2017-12-30T17:11:48.373Z,7.40
2017-12-30T17:14:16.237Z,9.07
2017-12-30T17:16:44.488Z,10.07
2017-12-30T17:19:13.375Z,9.90
2017-12-30T17:21:41.535Z,11.83
2017-12-30T17:24:09.245Z,7.23
2017-12-30T17:26:36.866Z,7.40
2017-12-30T17:29:04.345Z,6.83
2017-12-30T17:31:32.302Z,6.23
2017-12-30T17:33:59.999Z,6.37
2017-12-30T17:36:27.521Z,5.60
2017-12-30T17:38:55.218Z,4.40
2017-12-30T17:41:22.791Z,5.20
2017-12-30T17:43:50.387Z,3.10
2017-12-30T17:46:17.891Z,4.13
2017-12-30T17:48:45.834Z,3.47
2017-12-30T17:51:14.126Z,2.20
2017-12-30T17:53:41.685Z,3.63
2017-12-30T17:56:09.251Z,5.37
2017-12-30T17:58:37.172Z,5.97
2017-12-30T18:01:08.088Z,3.30
2017-12-30T18:03:35.800Z,2.70
2017-12-30T18:06:03.403Z,3.33
2017-12-30T18:08:31.107Z,2.00
2017-12-30T18:10:58.796Z,2.80
2017-12-30T18:13:26.375Z,1.33
2017-12-30T18:15:54.051Z,2.77
2017-12-30T18:18:21.569Z,1.63
2017-12-30T18:20:49.404Z,4.00
2017-12-30T18:23:17.005Z,1.93
2017-12-30T18:25:45.284Z,2.20
2017-12-30T18:28:12.975Z,1.90
2017-12-30T18:30:40.705Z,2.43
2017-12-30T18:33:08.274Z,1.90
2017-12-30T18:35:35.849Z,1.83
2017-12-30T18:38:04.296Z,1.87
2017-12-30T18:40:31.811Z,1.60
2017-12-30T18:42:59.355Z,1.70
2017-12-30T18:45:26.999Z,1.50
2017-12-30T18:47:54.695Z,1.73
2017-12-30T18:50:22.353Z,2.07
2017-12-30T18:52:50.198Z,1.90
2017-12-30T18:55:18.631Z,4.70
2017-12-30T18:57:48.784Z,2.00
2017-12-30T19:00:17.840Z,2.10
2017-12-30T19:02:45.977Z,1.93
2017-12-30T19:05:13.556Z,1.93
2017-12-30T19:07:41.298Z,1.80
2017-12-30T19:10:09.935Z,2.03
2017-12-30T19:12:37.547Z,1.80
2017-12-30T19:15:13.735Z,1.50
2017-12-30T19:17:42.959Z,2.67
2017-12-30T19:20:10.485Z,1.80
2017-12-30T19:22:38.060Z,3.50
2017-12-30T19:25:05.954Z,1.87
2017-12-30T19:27:34.915Z,1.53
2017-12-30T19:30:03.231Z,2.83
2017-12-30T19:32:30.779Z,2.20
2017-12-30T19:34:58.758Z,1.90
2017-12-30T19:37:26.360Z,1.87
2017-12-30T19:39:54.095Z,1.60
2017-12-30T19:42:21.707Z,1.93
2017-12-30T19:44:50.139Z,2.00
2017-12-30T19:47:18.507Z,1.70
2017-12-30T19:49:46.197Z,2.90
2017-12-30T19:52:14.048Z,2.27
2017-12-30T19:54:41.701Z,1.40
2017-12-30T19:57:09.447Z,1.60
2017-12-30T19:59:36.974Z,2.60
2017-12-30T20:02:04.573Z,1.40
2017-12-30T20:04:32.568Z,2.73
2017-12-30T20:07:01.084Z,2.50
2017-12-30T20:09:28.714Z,1.53
2017-12-30T20:11:56.542Z,1.30
2017-12-30T20:14:24.570Z,2.30
2017-12-30T20:16:52.578Z,1.70
2017-12-30T20:19:23.374Z,2.20
2017-12-30T20:21:51.568Z,4.53
2017-12-30T20:24:21.206Z,1.30
2017-12-30T20:26:50.494Z,1.70
2017-12-30T20:29:19.281Z,3.20
2017-12-30T20:31:47.198Z,3.50
2017-12-30T20:34:14.959Z,2.30
2017-12-30T20:36:42.939Z,2.00
2017-12-30T20:39:12.049Z,1.60
2017-12-30T20:41:39.616Z,1.60
2017-12-30T20:44:07.526Z,1.57
2017-12-30T20:46:36.310Z,2.50
2017-12-30T20:49:03.925Z,2.30
2017-12-30T20:51:31.999Z,2.47
2017-12-30T20:53:59.754Z,1.43
2017-12-30T20:56:27.409Z,1.40
2017-12-30T20:58:56.225Z,1.70
2017-12-30T21:01:25.143Z,1.70
2017-12-30T21:03:54.164Z,2.00
2017-12-30T21:06:22.746Z,1.97
2017-12-30T21:08:51.097Z,1.30
2017-12-30T21:14:07.968Z,1.73
2017-12-30T21:16:35.729Z,2.22
2017-12-30T21:24:11.970Z,1.83
2017-12-30T21:26:39.656Z,1.40
2017-12-30T21:34:40.112Z,2.10
2017-12-30T21:37:15.602Z,1.70
2017-12-30T21:39:44.989Z,1.80
2017-12-30T21:42:21.136Z,2.30
2017-12-30T21:44:53.312Z,1.63
2017-12-30T21:47:22.685Z,1.30
2017-12-30T21:49:51.678Z,1.50
2017-12-30T21:52:19.286Z,2.70
2017-12-30T21:54:47.143Z,1.70
2017-12-30T21:57:16.219Z,1.27
2017-12-30T21:59:43.917Z,1.70
2017-12-30T22:02:11.635Z,1.37
2017-12-30T22:04:41.434Z,1.30
2017-12-30T22:07:10.209Z,1.20
2017-12-30T22:09:42.028Z,1.60
2017-12-30T22:12:14.148Z,3.17
2017-12-30T22:17:25.028Z,1.40
2017-12-30T22:19:52.962Z,1.13
2017-12-30T22:22:22.809Z,1.10
2017-12-30T22:24:51.436Z,1.27
2017-12-30T22:27:22.009Z,2.37
2017-12-30T22:29:53.505Z,1.60
2017-12-30T22:32:21.920Z,0.80
2017-12-30T22:34:51.595Z,1.03
2017-12-30T22:37:22.073Z,0.93
2017-12-30T22:39:49.713Z,1.10
2017-12-30T22:42:17.498Z,1.10
2017-12-30T22:44:45.346Z,5.83
2017-12-30T22:47:16.841Z,1.10
2017-12-30T22:56:48.777Z,1.50
2017-12-30T22:59:17.908Z,1.23
2017-12-30T23:01:46.344Z,1.13
2017-12-30T23:04:19.042Z,1.03
2017-12-30T23:06:47.420Z,2.40
2017-12-30T23:09:15.828Z,1.40
2017-12-30T23:11:43.408Z,1.53
2017-12-30T23:14:11.072Z,0.97
2017-12-30T23:16:39.788Z,1.17
2017-12-30T23:19:08.081Z,1.40
2017-12-30T23:21:37.183Z,2.50
2017-12-30T23:24:05.162Z,1.87
2017-12-30T23:26:33.219Z,2.77
2017-12-30T23:29:00.714Z,1.43
2017-12-30T23:31:31.076Z,1.00
2017-12-30T23:33:59.046Z,4.47
2017-12-30T23:36:28.165Z,1.27
2017-12-30T23:38:55.990Z,3.30
2017-12-30T23:41:26.933Z,1.97
2017-12-30T23:43:59.122Z,1.77
2017-12-30T23:46:28.084Z,1.20
2017-12-30T23:48:56.590Z,2.00
2017-12-30T23:51:28.389Z,1.00
2017-12-30T23:53:56.658Z,1.00
2017-12-30T23:56:25.043Z,2.17
2017-12-30T23:58:54.140Z,1.17
